createdAt,value
2018-11-21T00:01:46.697Z,24.87
2018-11-21T00:04:34.401Z,22.63
2018-11-21T00:07:22.014Z,21.17
2018-11-21T00:10:11.706Z,22.00
2018-11-21T00:12:59.551Z,23.47
2018-11-21T00:15:47.380Z,22.53
2018-11-21T00:18:35.315Z,24.83
2018-11-21T00:21:23.519Z,25.47
2018-11-21T00:24:13.131Z,19.97
2018-11-21T00:27:01.311Z,23.40
2018-11-21T00:29:49.450Z,21.77
2018-11-21T00:32:37.205Z,22.80
2018-11-21T00:35:24.989Z,22.83
2018-11-21T00:38:12.533Z,21.57
2018-11-21T00:41:00.503Z,22.87
2018-11-21T00:43:48.401Z,25.03
2018-11-21T00:46:36.375Z,24.70
2018-11-21T00:49:24.498Z,22.27
2018-11-21T00:52:12.191Z,22.30
2018-11-21T00:55:00.015Z,22.80
2018-11-21T00:57:47.678Z,23.47
2018-11-21T01:00:35.662Z,25.87
2018-11-21T01:03:23.831Z,21.90
2018-11-21T01:06:11.442Z,24.50
2018-11-21T01:08:59.363Z,22.17
2018-11-21T01:11:47.588Z,25.27
2018-11-21T01:14:35.499Z,23.07
2018-11-21T01:17:23.173Z,22.03
2018-11-21T01:20:11.174Z,22.10
2018-11-21T01:22:59.067Z,21.73
2018-11-21T01:25:46.774Z,22.13
2018-11-21T01:28:34.622Z,22.30
2018-11-21T01:31:22.674Z,24.33
2018-11-21T01:34:10.981Z,22.80
2018-11-21T01:36:40.179Z,23.90
2018-11-21T01:39:28.075Z,25.43
2018-11-21T01:42:15.970Z,24.30
2018-11-21T01:45:04.073Z,23.97
2018-11-21T01:47:51.771Z,23.57
2018-11-21T01:50:40.088Z,24.03
2018-11-21T01:53:28.423Z,24.77
2018-11-21T01:56:16.324Z,24.80
2018-11-21T01:59:04.182Z,24.60
2018-11-21T02:01:52.124Z,21.27
2018-11-21T02:04:40.105Z,23.07
2018-11-21T02:07:28.746Z,23.57
2018-11-21T02:10:16.781Z,29.60
2018-11-21T02:13:04.410Z,23.37
2018-11-21T02:15:52.274Z,24.20
2018-11-21T02:18:39.922Z,24.93
2018-11-21T02:21:27.504Z,25.57
2018-11-21T02:24:15.311Z,24.47
2018-11-21T02:27:03.271Z,23.93
2018-11-21T02:29:51.473Z,25.53
2018-11-21T02:32:39.538Z,25.87
2018-11-21T02:35:27.487Z,25.80
2018-11-21T02:38:15.425Z,26.10
2018-11-21T02:41:03.138Z,26.17
2018-11-21T02:43:51.028Z,25.33
2018-11-21T02:46:39.243Z,26.27
2018-11-21T02:49:27.105Z,25.57
2018-11-21T02:52:15.153Z,26.20
2018-11-21T02:55:02.750Z,26.20
2018-11-21T02:57:50.493Z,27.60
2018-11-21T03:00:38.129Z,26.73
2018-11-21T03:03:25.772Z,22.90
2018-11-21T03:06:13.974Z,28.97
2018-11-21T03:09:01.914Z,27.47
2018-11-21T03:11:50.042Z,26.43
2018-11-21T03:14:38.392Z,23.53
2018-11-21T03:17:26.399Z,27.87
2018-11-21T03:20:14.522Z,26.70
2018-11-21T03:23:02.322Z,24.60
2018-11-21T03:25:50.506Z,27.00
2018-11-21T03:28:38.519Z,25.57
2018-11-21T03:31:26.777Z,27.03
2018-11-21T03:34:14.336Z,27.90
2018-11-21T03:37:02.550Z,27.27
2018-11-21T03:39:50.330Z,25.20
2018-11-21T03:42:39.369Z,24.80
2018-11-21T03:45:27.174Z,27.43
2018-11-21T03:48:15.575Z,29.03
2018-11-21T03:51:03.168Z,26.80
2018-11-21T03:53:50.937Z,25.73
2018-11-21T03:56:39.015Z,29.03
2018-11-21T03:59:26.834Z,29.20
2018-11-21T04:02:14.646Z,25.70
2018-11-21T04:05:02.746Z,26.63
2018-11-21T04:07:51.210Z,25.30
2018-11-21T04:10:38.930Z,30.00
2018-11-21T04:13:26.449Z,28.00
2018-11-21T04:16:15.068Z,28.00
2018-11-21T04:19:02.944Z,27.37
2018-11-21T04:21:51.058Z,29.03
2018-11-21T04:24:38.758Z,30.47
2018-11-21T04:27:26.332Z,30.43
2018-11-21T04:30:14.409Z,28.37
2018-11-21T04:33:02.413Z,28.53
2018-11-21T04:35:50.863Z,30.30
2018-11-21T04:38:38.737Z,27.87
2018-11-21T04:41:26.550Z,36.13
2018-11-21T04:44:14.355Z,30.03
2018-11-21T04:47:02.219Z,34.20
2018-11-21T04:49:50.412Z,31.53
2018-11-21T04:52:38.374Z,36.07
2018-11-21T04:55:26.387Z,34.67
2018-11-21T04:58:13.930Z,33.40
2018-11-21T05:01:02.222Z,33.37
2018-11-21T05:03:50.714Z,34.17
2018-11-21T05:06:38.980Z,34.87
2018-11-21T05:09:26.634Z,34.57
2018-11-21T05:12:14.186Z,38.67
2018-11-21T05:15:02.165Z,30.90
2018-11-21T05:17:50.120Z,34.63
2018-11-21T05:20:37.967Z,36.43
2018-11-21T05:23:26.067Z,33.73
2018-11-21T05:26:14.863Z,32.17
2018-11-21T05:29:02.766Z,35.77
2018-11-21T05:31:52.138Z,34.67
2018-11-21T05:34:38.184Z,37.43
2018-11-21T05:37:25.866Z,34.80
2018-11-21T05:40:14.003Z,33.10
2018-11-21T05:43:01.894Z,39.37
2018-11-21T05:45:49.648Z,37.77
2018-11-21T05:48:37.548Z,36.17
2018-11-21T05:51:25.820Z,34.90
2018-11-21T05:54:13.386Z,34.70
2018-11-21T05:57:01.149Z,36.17
2018-11-21T05:59:49.110Z,39.90
2018-11-21T06:02:37.440Z,39.60
2018-11-21T06:05:25.186Z,42.43
2018-11-21T06:08:13.250Z,36.47
2018-11-21T06:11:01.647Z,39.80
2018-11-21T06:13:49.599Z,37.53
2018-11-21T06:16:37.835Z,43.00
2018-11-21T06:19:25.839Z,43.80
2018-11-21T06:22:14.007Z,46.80
2018-11-21T06:25:02.327Z,39.60
2018-11-21T06:27:50.855Z,39.43
2018-11-21T06:30:38.315Z,39.47
2018-11-21T06:33:26.057Z,40.83
2018-11-21T06:36:13.906Z,36.90
2018-11-21T06:39:02.004Z,41.43
2018-11-21T06:41:50.300Z,36.33
2018-11-21T06:44:38.107Z,40.20
2018-11-21T06:47:26.297Z,43.77
2018-11-21T06:50:14.646Z,41.43
2018-11-21T06:52:43.803Z,38.37
2018-11-21T06:55:13.201Z,42.03
2018-11-21T06:57:42.444Z,37.30
2018-11-21T07:00:12.313Z,38.57
2018-11-21T07:02:42.208Z,43.40
2018-11-21T07:05:11.756Z,40.97
2018-11-21T07:07:40.978Z,38.67
2018-11-21T07:10:14.306Z,40.67
2018-11-21T07:12:44.271Z,43.03
2018-11-21T07:15:13.566Z,40.97
2018-11-21T07:17:42.901Z,38.70
2018-11-21T07:20:13.426Z,40.63
2018-11-21T07:22:42.854Z,36.60
2018-11-21T07:25:17.872Z,41.53
2018-11-21T07:27:46.995Z,34.67
2018-11-21T07:30:16.851Z,38.90
2018-11-21T07:32:46.031Z,42.23
2018-11-21T07:35:18.072Z,43.30
2018-11-21T07:37:45.216Z,38.00
2018-11-21T07:40:15.417Z,36.47
2018-11-21T07:42:44.710Z,44.47
2018-11-21T07:45:15.026Z,38.27
2018-11-21T07:47:44.801Z,38.57
2018-11-21T07:50:19.065Z,42.43
2018-11-21T07:52:48.260Z,46.43
2018-11-21T07:55:17.378Z,44.27
2018-11-21T07:57:48.150Z,37.20
2018-11-21T08:00:50.896Z,38.90
2018-11-21T08:03:20.533Z,38.33
2018-11-21T08:05:52.263Z,37.30
2018-11-21T08:08:40.756Z,39.87
2018-11-21T08:11:37.889Z,62.47
2018-11-21T08:14:28.874Z,49.43
2018-11-21T08:17:32.008Z,43.93
2018-11-21T08:20:23.233Z,42.50
2018-11-21T08:23:14.477Z,41.47
2018-11-21T08:26:01.530Z,37.83
2018-11-21T08:28:31.632Z,43.10
2018-11-21T08:31:01.231Z,40.77
2018-11-21T08:33:48.658Z,47.53
2018-11-21T08:36:36.117Z,46.40
2018-11-21T08:39:24.602Z,49.30
2018-11-21T08:42:12.220Z,43.90
2018-11-21T08:44:59.796Z,37.40
2018-11-21T08:47:47.811Z,40.07
2018-11-21T08:50:35.830Z,41.83
2018-11-21T08:53:23.555Z,43.63
2018-11-21T08:56:11.790Z,38.93
2018-11-21T08:59:00.924Z,35.17
2018-11-21T09:01:48.706Z,41.60
2018-11-21T09:04:36.396Z,37.50
2018-11-21T09:07:24.235Z,33.13
2018-11-21T09:10:13.285Z,42.63
2018-11-21T09:13:00.811Z,37.37
2018-11-21T09:15:48.657Z,30.80
2018-11-21T09:18:36.514Z,36.90
2018-11-21T09:21:24.208Z,35.87
2018-11-21T09:24:12.192Z,32.80
2018-11-21T09:27:00.353Z,32.93
2018-11-21T09:29:48.282Z,36.60
2018-11-21T09:32:36.413Z,32.03
2018-11-21T09:35:24.466Z,33.70
2018-11-21T09:38:12.639Z,34.00
2018-11-21T09:41:00.265Z,31.30
2018-11-21T09:43:48.443Z,32.50
2018-11-21T09:46:36.698Z,34.43
2018-11-21T09:49:25.208Z,29.60
2018-11-21T09:52:12.962Z,34.00
2018-11-21T09:55:00.821Z,31.57
2018-11-21T09:57:48.737Z,34.10
2018-11-21T10:01:13.144Z,32.57
2018-11-21T10:04:01.458Z,34.63
2018-11-21T10:06:50.038Z,33.20
2018-11-21T10:09:41.506Z,36.60
2018-11-21T10:12:30.739Z,33.10
2018-11-21T10:15:18.530Z,44.03
2018-11-21T10:18:06.551Z,33.37
2018-11-21T10:20:54.336Z,29.70
2018-11-21T10:23:42.446Z,29.30
2018-11-21T10:26:30.313Z,31.13
2018-11-21T10:29:18.185Z,31.77
2018-11-21T10:32:05.778Z,28.70
2018-11-21T10:34:53.896Z,32.50
2018-11-21T10:37:42.614Z,32.67
2018-11-21T10:40:30.241Z,30.53
2018-11-21T10:43:18.244Z,31.30
2018-11-21T10:46:07.047Z,33.53
2018-11-21T10:48:54.605Z,29.60
2018-11-21T10:51:42.592Z,31.83
2018-11-21T10:54:30.147Z,31.80
2018-11-21T10:57:17.926Z,30.30
2018-11-21T11:00:14.276Z,34.43
2018-11-21T11:03:06.904Z,32.10
2018-11-21T11:06:12.742Z,29.90
2018-11-21T11:09:28.533Z,31.30
2018-11-21T11:12:41.463Z,29.33
2018-11-21T11:15:47.258Z,33.13
2018-11-21T11:18:52.854Z,31.27
2018-11-21T11:22:11.821Z,33.57
2018-11-21T11:25:17.687Z,31.90
2018-11-21T11:28:04.504Z,32.13
2018-11-21T11:30:56.065Z,30.53
2018-11-21T11:33:37.419Z,35.50
2018-11-21T11:36:24.560Z,32.43
2018-11-21T11:39:25.214Z,31.73
2018-11-21T11:42:14.861Z,28.73
2018-11-21T11:45:14.382Z,29.77
2018-11-21T11:47:58.826Z,31.17
2018-11-21T11:50:45.628Z,30.20
2018-11-21T11:53:49.228Z,29.23
2018-11-21T11:56:33.938Z,30.50
2018-11-21T11:59:13.067Z,28.10
2018-11-21T12:01:59.962Z,29.80
2018-11-21T12:04:48.540Z,28.70
2018-11-21T12:07:36.956Z,26.33
2018-11-21T12:10:31.420Z,26.37
2018-11-21T12:13:27.688Z,32.37
2018-11-21T12:16:16.122Z,30.50
2018-11-21T12:19:05.413Z,31.27
2018-11-21T12:21:52.678Z,27.67
2018-11-21T12:24:39.543Z,31.03
2018-11-21T12:27:30.591Z,32.30
2018-11-21T12:30:17.615Z,29.40
2018-11-21T12:33:04.497Z,29.30
2018-11-21T12:36:02.031Z,28.17
2018-11-21T12:38:49.089Z,30.37
2018-11-21T12:41:36.079Z,27.23
2018-11-21T12:44:19.871Z,27.23
2018-11-21T12:47:06.647Z,28.40
2018-11-21T12:50:00.927Z,30.30
2018-11-21T12:52:42.086Z,34.23
2018-11-21T12:55:39.537Z,28.73
2018-11-21T12:58:26.325Z,30.23
2018-11-21T13:01:17.645Z,28.60
2018-11-21T13:04:21.563Z,31.43
2018-11-21T13:06:57.665Z,34.30
2018-11-21T13:09:44.567Z,28.40
2018-11-21T13:12:39.113Z,28.70
2018-11-21T13:15:26.572Z,32.00
2018-11-21T13:18:19.982Z,28.43
2018-11-21T13:21:13.953Z,30.70
2018-11-21T13:24:07.990Z,28.23
2018-11-21T13:26:56.477Z,33.43
2018-11-21T13:29:46.707Z,30.20
2018-11-21T13:32:41.095Z,33.80
2018-11-21T13:35:27.709Z,38.20
2018-11-21T13:38:13.131Z,29.97
2018-11-21T13:40:59.974Z,33.67
2018-11-21T13:43:35.511Z,28.00
2018-11-21T13:46:41.769Z,30.10
2018-11-21T13:49:19.059Z,30.60
2018-11-21T13:52:16.527Z,31.13
2018-11-21T13:54:59.247Z,29.63
2018-11-21T13:57:29.070Z,32.70
2018-11-21T13:59:58.663Z,28.63
2018-11-21T14:02:27.776Z,30.50
2018-11-21T14:04:57.450Z,27.87
2018-11-21T14:07:29.027Z,28.43
2018-11-21T14:09:56.227Z,30.50
2018-11-21T14:12:25.326Z,30.93
2018-11-21T14:14:54.542Z,27.73
2018-11-21T14:17:27.786Z,28.47
2018-11-21T14:19:52.971Z,31.27
2018-11-21T14:22:22.261Z,31.20
2018-11-21T14:24:51.757Z,28.83
2018-11-21T14:27:20.829Z,28.37
2018-11-21T14:29:50.396Z,33.77
2018-11-21T14:32:19.813Z,32.80
2018-11-21T14:34:49.569Z,31.80
2018-11-21T14:37:18.767Z,34.20
2018-11-21T14:39:48.100Z,28.60
2018-11-21T14:42:17.240Z,34.73
2018-11-21T14:44:46.485Z,28.37
2018-11-21T14:47:16.785Z,31.70
2018-11-21T14:49:49.534Z,30.10
2018-11-21T14:52:18.789Z,30.87
2018-11-21T14:54:48.320Z,31.47
2018-11-21T14:57:17.890Z,31.30
2018-11-21T14:59:47.322Z,28.60
2018-11-21T15:02:16.566Z,29.80
2018-11-21T15:04:45.921Z,33.93
2018-11-21T15:07:15.944Z,31.77
2018-11-21T15:09:45.554Z,31.70
2018-11-21T15:12:18.260Z,28.60
2018-11-21T15:14:46.792Z,26.63
2018-11-21T15:17:14.148Z,32.50
2018-11-21T15:19:43.505Z,30.17
2018-11-21T15:22:12.915Z,34.77
2018-11-21T15:24:44.469Z,26.47
2018-11-21T15:27:12.175Z,27.90
2018-11-21T15:29:42.106Z,30.40
2018-11-21T15:32:14.791Z,31.20
2018-11-21T15:34:46.833Z,32.87
2018-11-21T15:37:15.910Z,37.13
2018-11-21T15:39:45.674Z,31.60
2018-11-21T15:42:15.218Z,29.60
2018-11-21T15:44:44.592Z,31.87
2018-11-21T15:47:13.911Z,27.23
2018-11-21T15:49:43.529Z,31.00
2018-11-21T15:52:12.868Z,31.03
2018-11-21T15:54:44.350Z,31.03
2018-11-21T15:57:14.360Z,31.10
2018-11-21T15:59:41.680Z,31.83
2018-11-21T16:02:15.240Z,29.97
2018-11-21T16:04:48.120Z,30.83
2018-11-21T16:07:13.668Z,32.30
2018-11-21T16:09:43.286Z,30.80
2018-11-21T16:12:12.852Z,29.10
2018-11-21T16:14:42.494Z,30.57
2018-11-21T16:17:12.015Z,33.03
2018-11-21T16:19:51.144Z,38.40
2018-11-21T16:22:20.522Z,37.40
2018-11-21T16:24:50.119Z,36.10
2018-11-21T16:27:19.764Z,30.80
2018-11-21T16:29:49.135Z,32.63
2018-11-21T16:32:18.452Z,32.33
2018-11-21T16:34:48.165Z,34.57
2018-11-21T16:37:17.536Z,32.07
2018-11-21T16:39:46.854Z,40.20
2018-11-21T16:42:16.160Z,35.13
2018-11-21T16:44:45.563Z,34.00
2018-11-21T16:47:15.107Z,37.00
2018-11-21T16:49:44.489Z,36.20
2018-11-21T16:52:13.705Z,33.10
2018-11-21T16:54:42.815Z,34.13
2018-11-21T16:57:12.385Z,32.10
2018-11-21T16:59:41.866Z,35.53
2018-11-21T17:02:11.015Z,33.23
2018-11-21T17:04:40.183Z,37.20
2018-11-21T17:07:09.428Z,35.27
2018-11-21T17:09:42.549Z,31.50
2018-11-21T17:12:13.248Z,34.40
2018-11-21T17:14:43.060Z,38.17
2018-11-21T17:17:12.242Z,37.77
2018-11-21T17:19:41.510Z,34.60
2018-11-21T17:22:10.659Z,34.87
2018-11-21T17:24:39.852Z,34.57
2018-11-21T17:27:09.179Z,34.43
2018-11-21T17:29:49.308Z,35.47
2018-11-21T17:32:08.081Z,34.07
2018-11-21T17:34:37.385Z,34.70
2018-11-21T17:37:06.765Z,33.50
2018-11-21T17:39:36.200Z,31.30
2018-11-21T17:42:05.764Z,34.50
2018-11-21T17:44:35.100Z,33.30
2018-11-21T17:47:04.271Z,33.20
2018-11-21T17:49:33.760Z,38.77
2018-11-21T17:52:03.160Z,35.20
2018-11-21T17:54:32.604Z,34.87
2018-11-21T17:57:01.843Z,38.37
2018-11-21T17:59:31.062Z,37.03
2018-11-21T18:02:00.408Z,34.67
2018-11-21T18:04:48.156Z,37.47
2018-11-21T18:07:36.069Z,35.97
2018-11-21T18:10:28.724Z,38.27
2018-11-21T18:13:16.796Z,35.80
